Time;durP1;ratioP1;P1;durP2;ratioP2;P2;SDS_P1;SDS_P2;PMS_P1;PMS_P2;Temp;Humidity;BMP_temperature;BMP_pressure;BME280_temperature;BME280_humidity;BME280_pressure;Samples;Min_cycle;Max_cycle;Signal;HPM_P1;HPM_P2
2023/12/20 07:44:35;;;;;;;;;1.00;1.00;;;;;20.02;43.50;102186.97;5562125;23;45379;-75
2023/12/20 07:47:01;;;;;;;;;2.33;0.33;;;;;20.15;43.77;102203.44;4915315;28;46100;-77
2023/12/20 07:49:26;;;;;;;;;2.00;1.00;;;;;20.38;43.76;102237.59;4918096;28;45286;-75
2023/12/20 07:51:52;;;;;;;;;1.00;1.00;;;;;20.37;44.12;102229.81;4917965;28;45396;-78
2023/12/20 07:54:17;;;;;;;;;2.33;0.67;;;;;20.31;44.64;102223.25;4918438;28;45523;-73
2023/12/20 07:56:42;;;;;;;;;1.00;0.67;;;;;20.42;44.47;102240.81;4917552;28;46510;-72
2023/12/20 07:59:07;;;;;;;;;2.00;2.00;;;;;20.39;44.02;102247.22;4914881;28;45417;-71
2023/12/20 08:01:33;;;;;;;;;2.33;1.67;;;;;20.39;44.20;102249.00;4902273;28;45932;-73
2023/12/20 08:03:58;;;;;;;;;1.67;0.67;;;;;20.44;44.00;102259.16;4913179;28;45393;-73
2023/12/20 08:06:23;;;;;;;;;2.00;2.00;;;;;20.43;44.33;102257.50;4915488;28;46261;-75
2023/12/20 08:08:49;;;;;;;;;0.67;0.67;;;;;20.25;44.41;102235.19;4917323;28;45573;-75
2023/12/20 08:11:14;;;;;;;;;0.67;0.67;;;;;20.44;44.19;102265.31;4917588;28;45603;-75
2023/12/20 08:13:40;;;;;;;;;2.33;0.67;;;;;20.31;44.44;102244.41;4917868;28;45363;-75
2023/12/20 08:16:05;;;;;;;;;1.00;1.00;;;;;20.45;44.05;102261.69;4917083;28;46494;-75
2023/12/20 08:18:30;;;;;;;;;3.00;1.00;;;;;20.40;43.85;102258.63;4917082;28;45494;-78
2023/12/20 08:20:56;;;;;;;;;2.33;1.33;;;;;20.43;44.62;102274.19;4916265;28;47497;-73
2023/12/20 08:23:21;;;;;;;;;1.33;1.33;;;;;20.45;44.24;102285.50;4917036;28;48338;-72
2023/12/20 08:25:48;;;;;;;;;1.33;1.33;;;;;20.46;44.36;102287.16;4910811;28;46364;-74
2023/12/20 08:28:13;;;;;;;;;2.00;1.00;;;;;20.43;44.64;102289.25;4900374;28;45501;-72
2023/12/20 08:30:38;;;;;;;;;2.33;1.00;;;;;20.47;44.46;102296.75;4911283;28;45390;-75
2023/12/20 08:33:04;;;;;;;;;0.67;0.67;;;;;20.49;44.69;102291.34;4917434;28;45627;-74
2023/12/20 08:35:29;;;;;;;;;0.67;0.67;;;;;20.44;44.64;102282.97;4911687;28;46964;-74
2023/12/20 08:37:55;;;;;;;;;2.67;1.33;;;;;20.35;44.92;102269.56;4901011;28;45509;-74
2023/12/20 08:40:20;;;;;;;;;1.00;1.00;;;;;20.49;44.88;102284.25;4915288;28;45655;-73
2023/12/20 08:42:46;;;;;;;;;2.67;0.67;;;;;20.44;44.59;102277.69;4917361;28;45399;-74
2023/12/20 08:45:11;;;;;;;;;1.00;1.00;;;;;20.50;44.99;102295.66;4916396;28;46987;-74
2023/12/20 08:47:36;;;;;;;;;0.67;0.67;;;;;20.48;44.85;102285.19;4919550;28;45842;-74
2023/12/20 08:50:03;;;;;;;;;1.67;1.00;;;;;20.42;44.92;102269.91;4920711;28;45495;-73
2023/12/20 08:52:29;;;;;;;;;2.00;0.67;;;;;20.48;44.53;102287.84;4920552;28;45634;-73
2023/12/20 08:54:54;;;;;;;;;1.00;1.00;;;;;20.39;44.68;102273.63;4934697;28;48082;-74
2023/12/20 08:57:21;;;;;;;;;3.33;2.00;;;;;20.43;44.81;102286.59;4920291;28;45601;-74
2023/12/20 08:59:47;;;;;;;;;1.67;0.67;;;;;20.43;44.88;102276.03;4920126;28;45401;-74
2023/12/20 09:02:12;;;;;;;;;1.33;1.33;;;;;20.48;44.76;102281.75;4920169;28;45479;-74
2023/12/20 09:04:38;;;;;;;;;1.00;1.00;;;;;20.43;44.62;102271.53;4919722;28;46268;-74
2023/12/20 09:07:04;;;;;;;;;1.33;1.33;;;;;20.48;44.86;102287.03;4920360;28;45320;-73
2023/12/20 09:09:31;;;;;;;;;1.67;1.67;;;;;20.45;44.76;102280.22;4920148;28;45417;-74
2023/12/20 09:11:57;;;;;;;;;2.00;1.67;;;;;20.37;44.64;102258.88;4920196;28;45392;-74
2023/12/20 09:14:22;;;;;;;;;2.67;1.67;;;;;20.42;44.79;102261.97;4919800;28;45953;-74
2023/12/20 09:16:48;;;;;;;;;3.67;1.67;;;;;20.38;44.66;102255.25;4920023;28;45358;-75
2023/12/20 09:19:13;;;;;;;;;2.33;1.00;;;;;20.38;44.87;102257.91;4934391;28;45441;-77
2023/12/20 09:21:38;;;;;;;;;2.00;2.00;;;;;20.29;44.47;102239.25;4919705;28;45426;-75
2023/12/20 09:24:04;;;;;;;;;2.00;0.67;;;;;20.47;44.61;102270.31;4919503;28;46039;-75
2023/12/20 09:26:29;;;;;;;;;1.33;1.33;;;;;20.27;44.83;102233.25;4920226;28;45421;-75
2023/12/20 09:28:54;;;;;;;;;2.67;1.67;;;;;20.24;44.53;102220.31;4919472;28;45427;-74
2023/12/20 09:31:20;;;;;;;;;0.33;0.00;;;;;20.47;44.71;102265.03;4919604;28;57648;-74
2023/12/20 09:33:45;;;;;;;;;3.00;1.33;;;;;20.47;44.51;102250.97;4909223;28;47244;-73
2023/12/20 09:36:10;;;;;;;;;2.67;2.00;;;;;20.38;44.72;102232.31;4913472;28;46676;-73
2023/12/20 09:38:35;;;;;;;;;4.67;1.67;;;;;20.39;44.88;102236.63;4910785;28;45523;-74
2023/12/20 09:41:03;;;;;;;;;2.67;1.67;;;;;20.47;44.44;102251.81;4918538;28;45634;-73
2023/12/20 09:43:30;;;;;;;;;4.00;2.67;;;;;20.48;44.30;102250.00;4919409;28;46203;-73
2023/12/20 09:46:02;;;;;;;;;2.67;2.33;;;;;20.45;44.75;102240.53;4918380;28;45383;-74
2023/12/20 09:48:27;;;;;;;;;1.33;1.33;;;;;20.48;44.72;102242.91;4918925;28;45370;-73
2023/12/20 09:50:53;;;;;;;;;3.33;0.67;;;;;20.48;44.57;102236.78;4919228;28;45353;-73
2023/12/20 09:53:19;;;;;;;;;2.00;2.00;;;;;20.46;44.38;102228.13;4918622;28;46077;-73
2023/12/20 09:55:45;;;;;;;;;4.00;1.67;;;;;20.49;44.61;102251.66;4918724;28;45306;-73
2023/12/20 09:58:10;;;;;;;;;2.00;2.00;;;;;20.48;44.52;102260.59;4918109;28;45352;-73
2023/12/20 10:00:35;;;;;;;;;2.00;0.67;;;;;20.36;44.51;102242.19;4916765;28;45521;-73
2023/12/20 10:03:01;;;;;;;;;1.67;1.67;;;;;20.47;44.39;102269.47;4919212;28;55121;-73
2023/12/20 10:05:30;;;;;;;;;2.33;1.33;;;;;20.47;44.62;102275.63;4918819;28;45436;-74
2023/12/20 10:07:56;;;;;;;;;2.33;2.33;;;;;20.38;44.26;102256.09;4918324;28;45755;-73
2023/12/20 10:10:22;;;;;;;;;2.33;1.67;;;;;20.46;44.25;102279.22;4918983;28;45435;-73
2023/12/20 10:13:08;;;;;;;;;1.67;1.67;;;;;20.47;44.47;102282.69;4917697;28;46323;-73
2023/12/20 10:15:34;;;;;;;;;3.33;2.33;;;;;20.43;44.32;102274.19;4917751;28;45462;-73
2023/12/20 10:18:01;;;;;;;;;2.33;2.33;;;;;20.46;44.58;102279.22;4918346;28;45390;-73
2023/12/20 10:20:28;;;;;;;;;1.00;1.00;;;;;20.36;44.43;102265.13;4917980;28;45307;-73
2023/12/20 10:22:54;;;;;;;;;2.67;2.67;;;;;20.46;44.18;102276.56;4917646;28;46452;-73
2023/12/20 10:25:21;;;;;;;;;2.33;2.33;;;;;20.40;44.48;102263.91;4917662;28;45388;-73
2023/12/20 10:27:47;;;;;;;;;2.33;2.33;;;;;20.45;44.22;102263.50;4917552;28;45311;-73
2023/12/20 10:30:13;;;;;;;;;2.67;1.67;;;;;20.45;44.28;102245.84;4917642;28;45176;-73
2023/12/20 10:32:38;;;;;;;;;3.33;2.33;;;;;20.45;44.43;102251.13;4915483;28;47173;-73
2023/12/20 10:35:04;;;;;;;;;2.67;1.67;;;;;20.38;44.19;102244.69;4899011;28;45287;-73
2023/12/20 10:37:29;;;;;;;;;1.67;1.67;;;;;20.45;44.44;102256.41;4899033;29;45348;-73
2023/12/20 10:39:56;;;;;;;;;2.00;2.00;;;;;20.37;44.67;102259.72;4899064;29;45409;-73
2023/12/20 10:42:27;;;;;;;;;4.33;2.33;;;;;20.43;44.54;102266.25;4898939;28;47022;-73
2023/12/20 10:44:55;;;;;;;;;5.00;3.33;;;;;20.45;44.53;102253.75;4859569;28;1162945;-74
2023/12/20 10:47:21;;;;;;;;;3.67;2.67;;;;;20.36;44.41;102228.97;4902493;28;45397;-74
2023/12/20 10:49:48;;;;;;;;;4.67;3.00;;;;;20.45;44.39;102237.06;4917753;28;45471;-73
2023/12/20 10:52:13;;;;;;;;;4.00;2.67;;;;;20.44;44.40;102222.16;4918953;28;46194;-73
2023/12/20 10:54:41;;;;;;;;;3.33;3.00;;;;;20.28;44.40;102205.00;4918668;28;45364;-73
2023/12/20 10:57:07;;;;;;;;;1.67;1.67;;;;;20.44;44.31;102224.81;4933755;28;45295;-73
2023/12/20 10:59:38;;;;;;;;;2.67;1.33;;;;;20.44;44.36;102211.59;4919009;28;45296;-73
2023/12/20 11:02:07;;;;;;;;;4.00;1.67;;;;;20.33;44.47;102197.50;4918481;28;47192;-73
2023/12/20 11:04:53;;;;;;;;;1.00;1.00;;;;;20.43;44.42;102210.75;4918802;28;45374;-74
2023/12/20 11:07:37;;;;;;;;;2.67;2.67;;;;;20.45;44.24;102205.34;4918915;28;45343;-73
2023/12/20 11:10:10;;;;;;;;;1.67;1.67;;;;;20.44;44.72;102209.78;4917418;28;45280;-74
2023/12/20 11:12:47;;;;;;;;;2.67;2.67;;;;;20.45;44.50;102197.41;4918715;28;47342;-73
2023/12/20 11:15:15;;;;;;;;;3.00;2.00;;;;;20.45;44.46;102202.69;4918569;28;45393;-73
2023/12/20 11:17:40;;;;;;;;;5.33;2.33;;;;;20.46;44.40;102209.63;4918473;28;45489;-74
2023/12/20 11:20:10;;;;;;;;;1.00;0.67;;;;;20.46;44.16;102201.69;4918787;28;45463;-72
2023/12/20 11:22:35;;;;;;;;;1.00;0.67;;;;;20.45;44.75;102195.59;4918711;28;47246;-73
2023/12/20 11:25:09;;;;;;;;;1.67;1.00;;;;;20.31;44.35;102174.81;4918017;28;45349;-73
2023/12/20 11:27:35;;;;;;;;;2.67;2.67;;;;;20.42;44.36;102192.38;4918669;28;45347;-74
2023/12/20 11:30:06;;;;;;;;;2.67;1.67;;;;;20.31;44.28;102165.09;4918549;28;45387;-73
2023/12/20 11:32:34;;;;;;;;;2.00;2.00;;;;;20.37;44.34;102175.13;4918155;28;46941;-73
2023/12/20 11:35:17;;;;;;;;;2.67;2.67;;;;;20.47;44.62;102179.59;4918231;28;45399;-73
2023/12/20 11:37:43;;;;;;;;;1.33;0.67;;;;;20.47;44.31;102179.59;4918551;28;45581;-73
2023/12/20 11:40:11;;;;;;;;;2.67;1.67;;;;;20.45;44.37;102179.75;4917905;28;45478;-74
2023/12/20 11:42:42;;;;;;;;;3.00;3.00;;;;;20.38;44.18;102165.38;4918119;28;45358;-73
2023/12/20 11:45:14;;;;;;;;;4.00;3.00;;;;;20.42;44.42;102158.03;4916705;28;45431;-73
2023/12/20 11:47:40;;;;;;;;;1.67;1.00;;;;;20.44;44.44;102154.25;4917938;28;45523;-73
2023/12/20 11:50:06;;;;;;;;;3.33;1.33;;;;;20.44;44.11;102142.84;4918277;28;45284;-72
2023/12/20 11:52:31;;;;;;;;;4.33;2.67;;;;;20.35;44.55;102134.75;4917968;28;46138;-72
2023/12/20 11:54:57;;;;;;;;;4.00;2.33;;;;;20.43;45.24;102143.84;4917981;28;45424;-72
2023/12/20 11:57:23;;;;;;;;;6.33;3.00;;;;;20.39;44.76;102137.97;4918303;28;45390;-74
2023/12/20 11:59:48;;;;;;;;;2.67;1.67;;;;;20.48;44.83;102158.28;4918338;28;45366;-74
2023/12/20 12:02:14;;;;;;;;;2.67;2.67;;;;;20.46;44.63;102151.47;4916410;28;47355;-71
2023/12/20 12:04:41;;;;;;;;;5.67;2.00;;;;;20.45;45.12;102145.38;4918041;28;45440;-71
2023/12/20 12:07:07;;;;;;;;;1.67;1.67;;;;;20.02;44.84;102076.84;4917803;28;45398;-71
2023/12/20 12:09:32;;;;;;;;;4.33;1.00;;;;;20.37;45.14;102138.13;4916919;28;45552;-71
2023/12/20 12:11:58;;;;;;;;;2.00;1.67;;;;;20.44;45.43;102135.75;4917117;28;46873;-72
2023/12/20 12:14:23;;;;;;;;;2.00;2.00;;;;;20.48;45.56;102133.69;4905470;28;45502;-71
2023/12/20 12:16:50;;;;;;;;;2.00;1.33;;;;;20.48;45.57;102134.50;4914067;28;45384;-72
2023/12/20 12:19:25;;;;;;;;;2.00;2.00;;;;;20.48;45.49;102133.69;4898604;28;45438;-72
2023/12/20 12:22:03;;;;;;;;;3.00;2.00;;;;;20.53;45.45;102141.19;4912563;28;46362;-71
2023/12/20 12:24:28;;;;;;;;;1.67;1.33;;;;;20.51;45.79;102142.16;4915891;28;45729;-71
2023/12/20 12:26:57;;;;;;;;;1.00;1.00;;;;;20.53;45.98;102136.75;4914694;28;45374;-72
2023/12/20 12:29:24;;;;;;;;;1.00;1.00;;;;;20.36;45.80;102103.88;4912682;28;45380;-72
2023/12/20 12:31:50;;;;;;;;;0.00;0.00;;;;;20.50;45.83;102119.34;4909206;28;46997;-72
2023/12/20 12:34:16;;;;;;;;;2.67;1.67;;;;;20.54;46.01;102106.69;4919067;28;45560;-72
2023/12/20 12:36:41;;;;;;;;;2.33;2.33;;;;;20.47;45.77;102101.13;4926309;28;45328;-72
2023/12/20 12:39:07;;;;;;;;;1.00;1.00;;;;;20.55;45.98;102100.44;4915847;28;45380;-71
2023/12/20 12:41:32;;;;;;;;;1.67;1.67;;;;;20.40;46.09;102081.50;4901587;29;45418;-71
2023/12/20 12:43:57;;;;;;;;;5.67;1.00;;;;;20.51;46.29;102099.84;4901562;29;45400;-72
2023/12/20 12:46:23;;;;;;;;;3.67;1.00;;;;;20.46;46.56;102080.94;4901755;29;45664;-74
2023/12/20 12:48:50;;;;;;;;;1.33;1.33;;;;;20.26;46.28;102051.88;4914801;28;45490;-75
2023/12/20 12:51:16;;;;;;;;;3.00;1.00;;;;;20.55;45.88;102100.44;4919786;28;46664;-76
2023/12/20 12:53:41;;;;;;;;;3.00;2.00;;;;;20.42;46.08;102084.84;4920409;28;45888;-74
2023/12/20 12:56:07;;;;;;;;;0.00;0.00;;;;;20.56;46.27;102102.06;4920435;28;45382;-74
2023/12/20 12:58:33;;;;;;;;;3.00;2.00;;;;;20.42;45.80;102076.91;4920911;28;45495;-75
2023/12/20 13:00:58;;;;;;;;;3.00;1.00;;;;;20.56;46.03;102083.56;4920078;28;45395;-75
2023/12/20 13:03:24;;;;;;;;;2.33;2.00;;;;;20.52;45.91;102074.25;4920198;28;45233;-75
2023/12/20 13:05:50;;;;;;;;;3.00;2.00;;;;;20.41;46.06;102051.44;4919752;28;45343;-74
2023/12/20 13:08:15;;;;;;;;;3.33;1.67;;;;;20.50;46.00;102057.72;4920230;28;45471;-75
2023/12/20 13:10:40;;;;;;;;;2.00;1.00;;;;;20.38;45.75;102041.97;4920057;28;47063;-74
2023/12/20 13:13:06;;;;;;;;;0.67;0.67;;;;;20.56;46.20;102066.88;4934797;28;45842;-74
2023/12/20 13:15:31;;;;;;;;;3.33;2.00;;;;;20.45;46.14;102052.84;4919965;28;45295;-74
2023/12/20 13:17:56;;;;;;;;;3.33;1.67;;;;;20.56;45.55;102070.34;4919445;28;45486;-74
2023/12/20 13:20:22;;;;;;;;;2.00;2.00;;;;;20.46;45.94;102037.78;4910157;28;47018;-75
2023/12/20 13:22:48;;;;;;;;;3.33;2.00;;;;;20.56;45.99;102035.97;4919718;28;45498;-75
2023/12/20 13:25:13;;;;;;;;;2.00;1.33;;;;;20.47;46.11;102020.97;4920255;28;45475;-74
2023/12/20 13:27:38;;;;;;;;;2.67;2.67;;;;;20.48;45.77;102025.28;4919774;28;45473;-75
2023/12/20 13:30:05;;;;;;;;;1.67;1.67;;;;;20.47;45.57;102010.41;4919373;28;45754;-75
2023/12/20 13:32:31;;;;;;;;;4.33;1.00;;;;;20.52;45.91;102010.81;4911525;28;45525;-75
2023/12/20 13:34:56;;;;;;;;;2.00;0.67;;;;;20.55;45.93;102002.59;4919311;28;45502;-74
2023/12/20 13:37:22;;;;;;;;;1.00;1.00;;;;;20.55;45.99;102005.25;4934843;28;45407;-73
2023/12/20 13:39:47;;;;;;;;;1.67;1.67;;;;;20.47;45.77;101990.09;4919553;28;46096;-76
2023/12/20 13:42:13;;;;;;;;;1.33;1.33;;;;;20.49;45.56;101992.56;4919373;28;45296;-75
2023/12/20 13:44:39;;;;;;;;;2.00;1.67;;;;;20.39;45.59;101967.00;4919746;28;45315;-76
2023/12/20 13:47:04;;;;;;;;;2.33;1.00;;;;;20.51;45.94;101978.25;4918426;28;45459;-76
2023/12/20 13:49:30;;;;;;;;;1.00;1.00;;;;;20.51;45.41;101977.41;4919227;28;46650;-77
2023/12/20 13:51:55;;;;;;;;;2.00;2.00;;;;;20.50;45.85;101981.88;4919195;28;49377;-73
2023/12/20 13:54:22;;;;;;;;;2.00;2.00;;;;;20.42;45.74;101963.25;4919292;28;45396;-74
2023/12/20 13:56:47;;;;;;;;;4.00;3.00;;;;;20.34;46.07;101940.16;4914852;28;45476;-76
2023/12/20 13:59:13;;;;;;;;;1.67;1.67;;;;;20.36;45.50;101946.13;4904981;28;46313;-76
2023/12/20 14:01:39;;;;;;;;;0.67;0.67;;;;;20.50;45.84;101963.38;4912189;28;45452;-75
2023/12/20 14:04:04;;;;;;;;;0.67;0.67;;;;;20.50;45.63;101963.38;4909680;28;45344;-76
2023/12/20 14:06:29;;;;;;;;;1.00;1.00;;;;;20.47;45.65;101949.59;4913334;28;46487;-76
2023/12/20 14:08:55;;;;;;;;;3.00;3.00;;;;;20.49;45.76;101948.47;4918902;28;46295;-75
2023/12/20 14:11:20;;;;;;;;;2.00;2.00;;;;;20.48;45.49;101938.06;4919250;28;45391;-75
2023/12/20 14:13:45;;;;;;;;;0.67;0.67;;;;;20.43;45.57;101935.81;4919277;28;45368;-75
2023/12/20 14:16:11;;;;;;;;;1.00;1.00;;;;;20.38;45.60;101917.75;4918109;28;45707;-77
2023/12/20 14:18:36;;;;;;;;;2.00;2.00;;;;;20.37;45.52;101937.25;4911262;28;48238;-74
2023/12/20 14:21:02;;;;;;;;;2.67;2.00;;;;;20.47;45.70;101944.31;4912193;28;45322;-75
2023/12/20 14:23:27;;;;;;;;;1.00;1.00;;;;;20.46;45.74;101954.03;4903250;28;45349;-76
2023/12/20 14:25:55;;;;;;;;;1.00;1.00;;;;;20.34;45.91;101936.69;4915519;28;45223;-73
2023/12/20 14:28:21;;;;;;;;;5.67;2.00;;;;;20.36;45.56;101940.00;4918703;28;46183;-74
2023/12/20 14:30:46;;;;;;;;;3.00;2.00;;;;;20.02;45.54;101878.69;4918680;28;45406;-77
2023/12/20 14:33:12;;;;;;;;;2.33;1.00;;;;;20.40;45.81;101941.41;4918857;28;45305;-77
2023/12/20 14:35:37;;;;;;;;;2.00;2.00;;;;;20.42;45.41;101943.91;4918723;28;45527;-76
2023/12/20 14:38:03;;;;;;;;;1.33;0.67;;;;;20.38;45.75;101930.97;4918577;28;45402;-75
2023/12/20 14:40:28;;;;;;;;;0.67;0.67;;;;;20.39;45.85;101929.16;4918768;28;45372;-74
2023/12/20 14:42:53;;;;;;;;;0.67;0.67;;;;;20.39;45.85;101939.72;4915402;28;45491;-74
2023/12/20 14:45:19;;;;;;;;;1.00;1.00;;;;;20.43;45.69;101941.09;4910163;28;46747;-73
2023/12/20 14:47:44;;;;;;;;;1.00;1.00;;;;;20.28;45.38;101914.28;4906711;28;45818;-76
2023/12/20 14:50:11;;;;;;;;;0.67;0.67;;;;;20.19;45.33;101908.06;4918599;28;45484;-76
2023/12/20 14:52:37;;;;;;;;;0.67;0.67;;;;;20.37;45.36;101936.41;4918688;28;45431;-76
2023/12/20 14:55:03;;;;;;;;;3.00;3.00;;;;;20.31;45.84;101926.38;4918267;28;45408;-73
2023/12/20 14:57:29;;;;;;;;;0.67;0.67;;;;;20.37;45.40;101933.75;4918414;28;47089;-76
2023/12/20 14:59:55;;;;;;;;;2.00;1.67;;;;;20.43;45.64;101942.94;4917868;28;45347;-73
2023/12/20 15:02:20;;;;;;;;;1.00;0.67;;;;;20.39;45.56;101929.16;4917902;28;45629;-74
2023/12/20 15:04:46;;;;;;;;;3.33;1.00;;;;;20.21;45.63;101915.84;4918199;28;45293;-72
2023/12/20 15:07:11;;;;;;;;;0.67;0.67;;;;;20.41;45.25;101945.69;4918430;28;45947;-75
2023/12/20 15:09:36;;;;;;;;;0.67;0.67;;;;;20.43;45.83;101919.13;4917142;28;46678;-76
2023/12/20 15:12:02;;;;;;;;;0.67;0.67;;;;;20.32;45.67;101905.13;4918598;28;45331;-76
2023/12/20 15:14:28;;;;;;;;;0.67;0.67;;;;;20.43;45.82;101935.00;4933165;28;45448;-76
2023/12/20 15:16:55;;;;;;;;;2.67;0.67;;;;;20.43;45.82;101935.81;4917613;28;46198;-76
2023/12/20 15:19:20;;;;;;;;;0.67;0.67;;;;;20.26;45.45;101906.50;4918050;28;45318;-76
2023/12/20 15:21:46;;;;;;;;;1.67;1.67;;;;;20.37;45.67;101910.81;4918103;28;45490;-73
2023/12/20 15:24:19;;;;;;;;;2.00;1.67;;;;;20.43;45.65;101916.50;4917905;28;45355;-72
2023/12/20 15:26:46;;;;;;;;;1.00;1.00;;;;;20.33;45.88;101909.41;4918311;28;46175;-76
2023/12/20 15:29:13;;;;;;;;;1.33;1.33;;;;;20.31;45.41;101914.00;4917736;28;45471;-76
2023/12/20 15:31:43;;;;;;;;;2.00;1.33;;;;;20.28;45.68;101904.56;4917700;28;45287;-74
2023/12/20 15:34:08;;;;;;;;;2.33;0.67;;;;;20.43;45.46;101940.28;4911606;28;45996;-76
2023/12/20 15:36:33;;;;;;;;;2.00;0.67;;;;;20.37;45.72;101937.25;4917633;28;45382;-76
2023/12/20 15:38:59;;;;;;;;;3.67;1.33;;;;;20.38;45.46;101935.41;4918128;28;45447;-76
2023/12/20 15:41:24;;;;;;;;;1.00;1.00;;;;;20.43;45.65;101958.78;4917348;28;53084;-76
2023/12/20 15:43:49;;;;;;;;;0.67;0.67;;;;;20.40;45.81;101951.97;4917608;28;45464;-76
2023/12/20 15:46:15;;;;;;;;;2.00;1.33;;;;;20.40;45.49;101942.22;4917010;28;46054;-75
2023/12/20 15:48:41;;;;;;;;;2.67;0.67;;;;;20.33;45.74;101925.25;4917349;28;45383;-76
2023/12/20 15:51:08;;;;;;;;;3.00;2.00;;;;;20.19;45.58;101894.84;4917796;28;45440;-75
2023/12/20 15:53:33;;;;;;;;;0.67;0.00;;;;;20.32;45.72;101914.84;4917827;28;45328;-76
2023/12/20 15:55:59;;;;;;;;;1.67;0.33;;;;;20.40;45.68;101920.25;4917062;28;45383;-76
2023/12/20 15:58:24;;;;;;;;;1.00;0.67;;;;;20.39;45.78;101910.66;4917458;28;45522;-76
2023/12/20 16:00:50;;;;;;;;;0.67;0.67;;;;;20.31;45.81;101899.94;4916992;28;45377;-75
2023/12/20 16:03:16;;;;;;;;;1.33;1.33;;;;;20.40;45.61;101914.97;4910400;28;45850;-75
2023/12/20 16:05:41;;;;;;;;;1.00;1.00;;;;;20.28;45.50;101885.22;4908858;28;52495;-75
2023/12/20 16:08:07;;;;;;;;;1.00;1.00;;;;;20.42;45.50;101896.31;4917282;28;45350;-76
2023/12/20 16:10:32;;;;;;;;;0.67;0.67;;;;;20.31;45.53;101873.53;4902361;28;45360;-75
2023/12/20 16:12:57;;;;;;;;;1.00;1.00;;;;;20.33;45.70;101864.47;4909492;28;45415;-74
2023/12/20 16:15:23;;;;;;;;;0.67;0.67;;;;;20.39;45.69;101874.47;4915061;28;46113;-75
2023/12/20 16:17:48;;;;;;;;;0.67;0.67;;;;;20.39;45.56;101863.06;4916880;28;45430;-75
2023/12/20 16:20:14;;;;;;;;;1.67;1.00;;;;;20.38;45.80;101870.16;4917304;28;45690;-74
2023/12/20 16:22:40;;;;;;;;;2.33;1.33;;;;;20.39;45.74;101873.66;4917317;28;45311;-76
2023/12/20 16:25:06;;;;;;;;;1.67;1.33;;;;;20.31;45.68;101862.94;4916681;28;47180;-75
2023/12/20 16:27:31;;;;;;;;;1.00;1.00;;;;;20.40;45.67;101867.41;4917261;28;45350;-75
2023/12/20 16:29:56;;;;;;;;;0.67;0.67;;;;;20.35;45.90;101867.81;4912652;28;45421;-75
2023/12/20 16:32:22;;;;;;;;;3.33;2.00;;;;;20.38;45.55;101886.03;4903834;28;45460;-76
2023/12/20 16:34:48;;;;;;;;;0.67;0.67;;;;;20.38;45.90;101886.03;4912719;28;46146;-75
2023/12/20 16:37:13;;;;;;;;;0.67;0.67;;;;;20.39;45.56;101884.22;4905270;28;45527;-74
2023/12/20 16:39:39;;;;;;;;;2.67;1.33;;;;;20.39;45.84;101882.41;4913342;28;45378;-76
2023/12/20 16:42:04;;;;;;;;;1.00;1.00;;;;;20.28;45.56;101859.63;4917020;28;45375;-74
2023/12/20 16:44:30;;;;;;;;;3.67;1.67;;;;;20.38;45.47;101858.75;4915491;28;47133;-75
2023/12/20 16:46:55;;;;;;;;;0.67;0.67;;;;;20.33;45.67;101845.97;4916736;28;47317;-75
2023/12/20 16:49:20;;;;;;;;;1.67;1.67;;;;;20.37;45.57;101857.94;4917198;28;45287;-75
2023/12/20 16:51:46;;;;;;;;;1.33;1.33;;;;;20.34;45.52;101860.03;4916643;28;45457;-76
2023/12/20 16:54:11;;;;;;;;;1.33;0.67;;;;;20.38;45.75;101867.53;4916546;28;47022;-74
2023/12/20 16:56:37;;;;;;;;;1.67;0.33;;;;;20.26;45.45;101851.00;4911058;28;45384;-73
2023/12/20 16:59:02;;;;;;;;;0.33;0.33;;;;;20.31;45.61;101855.03;4897661;28;45392;-75
2023/12/20 17:01:29;;;;;;;;;3.33;1.33;;;;;20.32;45.27;101846.97;4914828;28;45821;-78
2023/12/20 17:03:54;;;;;;;;;1.67;0.67;;;;;20.11;45.39;101808.34;4917117;28;47375;-74
2023/12/20 17:06:20;;;;;;;;;0.33;0.33;;;;;20.33;45.47;101837.22;4904881;28;45381;-70
2023/12/20 17:08:45;;;;;;;;;1.33;0.67;;;;;20.32;45.55;101833.75;4900776;28;45499;-74
2023/12/20 17:11:11;;;;;;;;;2.00;1.00;;;;;20.39;45.87;101839.28;4902952;28;45492;-73
2023/12/20 17:13:36;;;;;;;;;1.33;1.33;;;;;20.39;45.53;101840.13;4920272;28;46141;-73
2023/12/20 17:16:02;;;;;;;;;2.00;1.67;;;;;20.39;46.17;101839.28;4916528;28;45384;-73
2023/12/20 17:18:27;;;;;;;;;1.67;1.00;;;;;20.36;46.01;101842.22;4919464;28;45372;-76
2023/12/20 17:20:52;;;;;;;;;0.67;0.00;;;;;20.42;46.38;101854.03;4920478;28;45303;-73
2023/12/20 17:23:18;;;;;;;;;0.33;0.33;;;;;20.38;45.99;101845.53;4920541;28;45292;-77
2023/12/20 17:25:43;;;;;;;;;2.67;0.33;;;;;20.35;46.01;101843.19;4920599;28;45324;-81
2023/12/20 17:28:09;;;;;;;;;1.67;0.00;;;;;20.35;46.13;101843.19;4920308;28;45453;-80
2023/12/20 17:30:34;;;;;;;;;1.00;1.00;;;;;20.32;46.47;101831.13;4920700;28;45300;-83
2023/12/20 17:33:00;;;;;;;;;1.33;1.33;;;;;20.19;46.13;101797.06;4920024;28;46784;-83
2023/12/20 17:35:26;;;;;;;;;0.67;0.67;;;;;20.45;46.25;101843.16;4920325;28;45791;-78
2023/12/20 17:37:51;;;;;;;;;0.67;0.67;;;;;20.24;46.33;101817.78;4920479;28;45375;-80
2023/12/20 17:40:17;;;;;;;;;2.00;0.67;;;;;20.36;46.44;101829.84;4920564;28;45300;-80
2023/12/20 17:42:45;;;;;;;;;3.00;1.00;;;;;20.45;46.47;101844.00;4919904;28;46565;-81
2023/12/20 17:45:11;;;;;;;;;1.33;1.00;;;;;20.29;46.62;101824.31;4919881;28;45319;-81
2023/12/20 17:47:37;;;;;;;;;0.00;0.00;;;;;20.29;46.41;101821.66;4919930;28;45442;-81
2023/12/20 17:50:03;;;;;;;;;2.67;1.33;;;;;20.38;46.81;101827.03;4920140;28;45431;-81
2023/12/20 17:52:28;;;;;;;;;1.33;0.00;;;;;20.46;46.50;101836.88;4920056;28;46649;-80
2023/12/20 17:54:54;;;;;;;;;0.67;0.67;;;;;20.46;46.70;101824.50;4919930;28;45279;-75
2023/12/20 17:57:19;;;;;;;;;0.67;0.67;;;;;20.45;46.66;101811.44;4905866;28;45379;-72
2023/12/20 17:59:44;;;;;;;;;0.67;0.00;;;;;20.48;46.75;101814.59;4904011;28;45538;-74
2023/12/20 18:02:10;;;;;;;;;0.67;0.67;;;;;20.38;46.56;101796.16;4920034;28;47239;-76
2023/12/20 18:04:35;;;;;;;;;0.33;0.00;;;;;20.49;46.32;101818.94;4918841;28;45438;-75
2023/12/20 18:07:00;;;;;;;;;1.33;1.33;;;;;20.25;46.56;101774.50;4920177;28;45328;-76
2023/12/20 18:09:26;;;;;;;;;0.00;0.00;;;;;20.48;46.45;101816.44;4919786;28;45221;-76
2023/12/20 18:11:51;;;;;;;;;1.67;0.67;;;;;20.45;46.66;101814.94;4919903;28;45459;-75
2023/12/20 18:14:16;;;;;;;;;0.67;0.67;;;;;20.48;46.30;101813.81;4919832;28;45350;-75
2023/12/20 18:16:42;;;;;;;;;1.67;0.33;;;;;20.47;46.49;101810.31;4920023;28;45369;-75
2023/12/20 18:19:07;;;;;;;;;1.33;0.67;;;;;20.45;46.79;101803.50;4919941;28;45449;-76
2023/12/20 18:21:32;;;;;;;;;2.00;0.00;;;;;20.47;46.42;101801.56;4919533;28;51656;-75
2023/12/20 18:23:58;;;;;;;;;0.67;0.67;;;;;20.25;46.45;101767.41;4919502;28;45344;-76
2023/12/20 18:27:01;;;;;;;;;2.00;0.00;;;;;20.46;46.58;101792.78;4919960;28;45474;-75
2023/12/20 18:29:28;;;;;;;;;0.67;0.67;;;;;20.45;46.39;101793.78;4919804;28;45440;-76
2023/12/20 18:31:53;;;;;;;;;3.33;1.00;;;;;20.38;46.45;101779.44;4919382;28;45435;-76
2023/12/20 18:34:19;;;;;;;;;1.33;1.33;;;;;20.44;46.14;101783.34;4919507;28;45391;-74
2023/12/20 18:36:44;;;;;;;;;0.00;0.00;;;;;20.35;46.35;101770.00;4919613;28;46467;-76
2023/12/20 18:39:09;;;;;;;;;0.67;0.00;;;;;20.36;46.42;101776.13;4919324;28;45395;-76
2023/12/20 18:41:35;;;;;;;;;0.00;0.00;;;;;20.44;46.38;101776.25;4919440;28;46358;-76
2023/12/20 18:44:01;;;;;;;;;2.00;1.67;;;;;20.42;46.29;101767.63;4917910;28;51666;-76
2023/12/20 18:46:26;;;;;;;;;0.00;0.00;;;;;20.44;46.69;101760.38;4919638;28;45375;-76
2023/12/20 18:48:52;;;;;;;;;0.00;0.00;;;;;20.29;46.70;101721.22;4919188;28;45356;-72
2023/12/20 18:51:18;;;;;;;;;3.00;0.67;;;;;20.37;46.53;101738.16;4919256;28;47064;-75
2023/12/20 18:53:43;;;;;;;;;2.33;1.00;;;;;20.43;46.22;101755.25;4918907;28;45283;-75
2023/12/20 18:56:09;;;;;;;;;3.00;1.00;;;;;20.36;46.49;101747.06;4919464;28;45644;-76
2023/12/20 18:58:34;;;;;;;;;0.00;0.00;;;;;20.33;46.30;101739.41;4919328;28;45169;-75
2023/12/20 19:01:00;;;;;;;;;3.00;1.00;;;;;20.13;46.49;101703.38;4919258;28;45845;-75
2023/12/20 19:03:26;;;;;;;;;0.67;0.00;;;;;20.39;46.49;101730.91;4919313;28;45289;-75